首页
METAR-TAF:

METAR-TAF

机场 :

奥古斯托·塞萨尔·桑地诺国际机场

馬納瓜, 尼加拉瓜

纬度: 12-09N, 经度: 086-10W, 海拔: 50米

当前天气观测

该预报发布于4小时和31分钟前的06:00 UTC
风速4节,风向
温度 28°C
湿度 58%
气压 1012 hPa
能见度10公里或以上
少量云层高于2500英尺

METAR: MNMG 020600Z 10004KT 9999 FEW025 28/19 Q1011 A2988 NOSIG

时间: 04:31 (10:31 UTC)

预报

该预报发布于7小时和31分钟前的03:00 UTC
预报有效从02日的 06点(UTC)到 03日的 06点(UTC)
风速4节,风向东转东南
能见度10公里或以上
少量云层高于2000英尺, 积雨云.
短暂存在
从 02日的 14点(UTC)到 02日的 18点(UTC)
风速6节,风向
能见度10公里或以上
1500米以下无云,无积雨云
成为
从 02日的 19点(UTC)到 02日的 23点(UTC)
风速12节,风向
散云层高于1800英尺

TAF: MNMG 020300Z 0206/0306 12004KT 9999 FEW020CB TEMPO 0214/0218 08006KT CAVOK BECMG 0219/0223 10012KT SCT018

超过4000个机场的气象观测和天气预报(METAR&TAF报告)。

可查询的气象台以黄色和红色小点在地图上表示。

将鼠标移到小点上方,可查看气象台名称。

然后点击查看天气观测和预报。

如需切换地图:点击带黑十字的绿色按钮放大地图;点击带横线的绿色按钮缩小地图;或者点击绿色箭头查看邻近地区的地图。


METAR-TAF: